TimeCST,TemperatureF,Dew PointF,Humidity,Sea Level PressureIn,VisibilityMPH,Wind Direction,Wind SpeedMPH,Gust SpeedMPH,PrecipitationIn,Events,Conditions,WindDirDegrees,DateUTC
12:15 AM,44.6,37.4,76,30.12,10.0,South,12.7,-,N/A,,Clear,170,2012-01-16 06:15:00
12:35 AM,44.6,37.4,76,30.12,10.0,South,13.8,-,N/A,,Partly Cloudy,180,2012-01-16 06:35:00
12:55 AM,46.4,37.4,71,30.11,10.0,South,13.8,-,N/A,,Mostly Cloudy,170,2012-01-16 06:55:00
1:15 AM,46.4,37.4,71,30.10,10.0,South,15.0,-,N/A,,Overcast,180,2012-01-16 07:15:00
1:35 AM,48.2,37.4,66,30.10,10.0,South,17.3,-,N/A,,Overcast,180,2012-01-16 07:35:00
1:55 AM,48.2,37.4,66,30.10,10.0,South,12.7,-,N/A,,Overcast,180,2012-01-16 07:55:00
2:15 AM,48.2,37.4,66,30.09,10.0,South,12.7,-,N/A,,Overcast,190,2012-01-16 08:15:00
2:35 AM,48.2,39.2,71,30.09,10.0,SSW,13.8,-,N/A,,Overcast,200,2012-01-16 08:35:00
2:55 AM,48.2,39.2,71,30.09,10.0,SSW,9.2,-,N/A,,Overcast,210,2012-01-16 08:55:00
3:15 AM,48.2,39.2,71,30.08,10.0,SSW,12.7,-,N/A,,Overcast,200,2012-01-16 09:15:00
3:35 AM,51.8,39.2,62,30.08,10.0,South,13.8,-,N/A,,Overcast,190,2012-01-16 09:35:00
3:55 AM,51.8,39.2,62,30.07,10.0,South,13.8,-,N/A,,Overcast,190,2012-01-16 09:55:00
4:15 AM,51.8,39.2,62,30.06,10.0,South,16.1,-,N/A,,Overcast,190,2012-01-16 10:15:00
4:35 AM,51.8,39.2,62,30.05,10.0,South,19.6,-,N/A,,Overcast,190,2012-01-16 10:35:00
4:55 AM,51.8,39.2,62,30.05,10.0,South,16.1,21.9,N/A,,Overcast,190,2012-01-16 10:55:00
5:35 AM,50.0,41.0,71,30.05,10.0,South,17.3,23.0,N/A,,Overcast,180,2012-01-16 11:35:00
5:55 AM,51.8,42.8,71,30.04,10.0,South,20.7,-,N/A,,Overcast,180,2012-01-16 11:55:00
6:15 AM,51.8,42.8,71,30.04,10.0,South,21.9,27.6,N/A,,Overcast,190,2012-01-16 12:15:00
6:35 AM,51.8,42.8,71,30.04,10.0,South,20.7,27.6,N/A,,Overcast,180,2012-01-16 12:35:00
6:55 AM,51.8,42.8,71,30.04,10.0,South,21.9,27.6,N/A,,Overcast,180,2012-01-16 12:55:00
7:15 AM,51.8,42.8,71,30.04,10.0,South,20.7,27.6,N/A,,Overcast,190,2012-01-16 13:15:00
7:35 AM,51.8,42.8,71,30.03,10.0,South,20.7,27.6,N/A,,Overcast,190,2012-01-16 13:35:00
7:55 AM,51.8,42.8,71,30.03,10.0,South,24.2,31.1,N/A,,Overcast,190,2012-01-16 13:55:00
8:15 AM,51.8,44.6,76,30.03,10.0,South,24.2,29.9,N/A,,Overcast,190,2012-01-16 14:15:00
8:35 AM,53.6,44.6,72,30.03,10.0,South,23.0,31.1,N/A,,Overcast,190,2012-01-16 14:35:00
8:55 AM,53.6,44.6,72,30.03,10.0,South,24.2,31.1,N/A,,Overcast,190,2012-01-16 14:55:00
9:15 AM,53.6,46.4,77,30.03,10.0,South,25.3,31.1,N/A,,Overcast,190,2012-01-16 15:15:00
9:35 AM,53.6,46.4,77,30.04,10.0,South,25.3,32.2,N/A,,Mostly Cloudy,190,2012-01-16 15:35:00
9:55 AM,55.4,46.4,72,30.03,10.0,South,24.2,31.1,N/A,,Overcast,190,2012-01-16 15:55:00
10:15 AM,55.4,48.2,77,30.03,10.0,South,24.2,35.7,N/A,,Overcast,190,2012-01-16 16:15:00
10:35 AM,55.4,48.2,77,30.02,10.0,South,28.8,38.0,N/A,,Mostly Cloudy,190,2012-01-16 16:35:00
10:55 AM,57.2,48.2,72,30.01,10.0,SSW,27.6,38.0,N/A,,Overcast,200,2012-01-16 16:55:00
11:15 AM,57.2,50.0,77,30.00,10.0,South,32.2,36.8,N/A,,Overcast,190,2012-01-16 17:15:00
11:35 AM,57.2,50.0,77,30.00,10.0,SSW,20.7,32.2,N/A,,Overcast,200,2012-01-16 17:35:00
11:55 AM,57.2,51.8,82,29.99,10.0,SSW,28.8,33.4,N/A,,Overcast,200,2012-01-16 17:55:00
12:15 PM,59.0,51.8,77,29.97,10.0,SSW,29.9,36.8,N/A,,Mostly Cloudy,200,2012-01-16 18:15:00
12:35 PM,60.8,53.6,77,29.97,10.0,SSW,29.9,36.8,N/A,,Mostly Cloudy,200,2012-01-16 18:35:00
12:55 PM,60.8,53.6,77,29.95,10.0,SSW,31.1,38.0,N/A,,Mostly Cloudy,200,2012-01-16 18:55:00
1:15 PM,60.8,53.6,77,29.94,10.0,South,26.5,35.7,N/A,,Overcast,190,2012-01-16 19:15:00
1:35 PM,60.8,53.6,77,29.93,10.0,South,28.8,36.8,N/A,,Overcast,190,2012-01-16 19:35:00
1:55 PM,60.8,53.6,77,29.92,10.0,South,28.8,34.5,N/A,,Mostly Cloudy,190,2012-01-16 19:55:00
2:15 PM,60.8,55.4,82,29.91,10.0,South,25.3,35.7,N/A,,Overcast,190,2012-01-16 20:15:00
2:35 PM,62.6,55.4,77,29.90,10.0,South,25.3,33.4,N/A,,Overcast,190,2012-01-16 20:35:00
3:15 PM,62.6,55.4,77,29.89,10.0,South,27.6,34.5,N/A,,Partly Cloudy,190,2012-01-16 21:15:00
3:35 PM,62.6,55.4,77,29.89,10.0,South,27.6,35.7,N/A,,Partly Cloudy,190,2012-01-16 21:35:00
3:55 PM,62.6,55.4,77,29.90,10.0,South,26.5,35.7,N/A,,Scattered Clouds,190,2012-01-16 21:55:00
4:15 PM,62.6,55.4,77,29.90,10.0,South,23.0,28.8,N/A,,Scattered Clouds,190,2012-01-16 22:15:00
4:35 PM,62.6,57.2,82,29.91,10.0,South,23.0,28.8,N/A,,Scattered Clouds,190,2012-01-16 22:35:00
4:55 PM,60.8,55.4,82,29.91,10.0,South,20.7,28.8,N/A,,Mostly Cloudy,190,2012-01-16 22:55:00
5:15 PM,60.8,55.4,82,29.90,10.0,South,20.7,26.5,N/A,,Mostly Cloudy,180,2012-01-16 23:15:00
5:35 PM,60.8,55.4,82,29.90,10.0,South,24.2,29.9,N/A,,Scattered Clouds,180,2012-01-16 23:35:00
5:56 PM,62.6,57.2,82,29.89,10.0,South,25.3,29.9,N/A,,Mostly Cloudy,190,2012-01-16 23:56:00
6:15 PM,62.6,57.2,82,29.89,10.0,South,21.9,28.8,N/A,,Overcast,180,2012-01-17 00:15:00
6:35 PM,62.6,57.2,82,29.90,10.0,South,23.0,29.9,N/A,,Overcast,180,2012-01-17 00:35:00
6:55 PM,62.6,57.2,82,29.89,10.0,South,24.2,32.2,N/A,,Scattered Clouds,180,2012-01-17 00:55:00
7:15 PM,62.6,57.2,82,29.88,10.0,South,25.3,31.1,N/A,,Clear,180,2012-01-17 01:15:00
7:35 PM,62.6,57.2,82,29.88,10.0,South,27.6,34.5,N/A,,Clear,180,2012-01-17 01:35:00
8:15 PM,62.6,57.2,82,29.89,10.0,South,23.0,-,N/A,,Clear,180,2012-01-17 02:15:00
8:55 PM,62.6,57.2,82,29.89,10.0,South,18.4,24.2,N/A,,Overcast,180,2012-01-17 02:55:00
9:15 PM,62.6,57.2,82,29.89,10.0,SSE,13.8,-,N/A,,Overcast,160,2012-01-17 03:15:00
9:35 PM,60.8,57.2,88,29.88,10.0,SSE,13.8,-,N/A,,Overcast,160,2012-01-17 03:35:00
9:55 PM,62.6,57.2,82,29.87,10.0,South,20.7,25.3,N/A,,Overcast,180,2012-01-17 03:55:00
10:35 PM,64.4,57.2,77,29.86,10.0,South,21.9,27.6,N/A,,Overcast,180,2012-01-17 04:35:00
10:55 PM,62.6,57.2,82,29.86,10.0,South,24.2,28.8,N/A,,Overcast,180,2012-01-17 04:55:00
11:35 PM,62.6,59.0,88,29.86,10.0,South,20.7,-,N/A,,Overcast,180,2012-01-17 05:35:00
11:55 PM,62.6,59.0,88,29.86,10.0,South,18.4,-,N/A,,Overcast,190,2012-01-17 05:55:00